Terminal Aerodrome Forecast
Issued by NWS

Home | Current Version | Previous Version | Text Only | Print | Product List | Glossary On
Versions: 1 2 3 4 5 6 7 8 9 10 11 12 13 14 15 16 17 18
000
FTUS45 KABQ 040500
TAFLVS
TAF
KLVS 040538Z 0406/0506 30006KT P6SM FEW080
     FM041000 08009KT P6SM OVC012
     FM041400 10008KT 1/2SM FZFG OVC004
     FM041900 11012KT 2SM -SN BR OVC007
     FM050200 12009KT 1/2SM FZFG OVC004=

USA.gov is the U.S. government's official web portal to all federal, state and local government web resources and services.